createdAt,value
2017-12-23T00:01:20.515Z,56.37
2017-12-23T00:07:24.472Z,55.17
2017-12-23T00:13:28.858Z,49.47
2017-12-23T00:19:32.399Z,56.93
2017-12-23T00:25:36.729Z,51.00
2017-12-23T00:31:40.237Z,58.37
2017-12-23T00:37:44.515Z,54.17
2017-12-23T00:43:48.894Z,83.80
2017-12-23T00:49:53.246Z,62.47
2017-12-23T00:55:57.245Z,71.43
2017-12-23T01:02:00.744Z,75.77
2017-12-23T01:08:05.885Z,80.63
2017-12-23T01:14:10.138Z,80.60
2017-12-23T01:20:13.631Z,69.47
2017-12-23T01:26:17.395Z,77.90
2017-12-23T01:32:21.049Z,78.07
2017-12-23T01:38:25.885Z,78.80
2017-12-23T01:44:29.485Z,75.43
2017-12-23T01:50:33.061Z,77.43
2017-12-23T01:56:36.581Z,66.20
2017-12-23T02:02:40.101Z,72.90
2017-12-23T02:08:43.582Z,81.37
2017-12-23T02:14:47.191Z,68.33
2017-12-23T02:20:51.166Z,59.57
2017-12-23T02:26:55.828Z,69.20
2017-12-23T02:32:59.526Z,65.53
2017-12-23T02:39:03.030Z,74.57
2017-12-23T02:45:07.270Z,63.10
2017-12-23T02:51:10.825Z,53.60
2017-12-23T02:57:15.067Z,65.17
2017-12-23T03:03:18.588Z,56.97
2017-12-23T03:09:22.855Z,64.93
2017-12-23T03:15:26.450Z,57.53
2017-12-23T03:21:29.980Z,53.40
2017-12-23T03:27:33.504Z,51.30
2017-12-23T03:33:37.138Z,42.30
2017-12-23T03:39:40.722Z,38.50
2017-12-23T03:45:45.072Z,34.80
2017-12-23T03:51:48.619Z,40.80
2017-12-23T03:57:52.383Z,43.87
2017-12-23T04:03:56.230Z,39.03
2017-12-23T04:09:59.725Z,41.67
2017-12-23T04:16:04.105Z,59.87
2017-12-23T04:22:08.758Z,49.77
2017-12-23T04:28:12.407Z,46.80
2017-12-23T04:34:15.879Z,48.93
2017-12-23T04:40:19.406Z,46.10
2017-12-23T04:46:23.104Z,49.97
2017-12-23T04:52:27.352Z,53.30
2017-12-23T04:58:30.845Z,51.40
2017-12-23T05:04:34.367Z,49.73
2017-12-23T05:10:38.644Z,44.93
2017-12-23T05:16:43.006Z,47.87
2017-12-23T05:22:47.286Z,50.27
2017-12-23T05:28:52.043Z,59.53
2017-12-23T05:34:56.687Z,55.53
2017-12-23T05:41:00.248Z,55.70
2017-12-23T05:47:03.747Z,65.17
2017-12-23T05:53:07.232Z,55.27
2017-12-23T05:59:10.746Z,64.63
2017-12-23T06:05:14.237Z,60.93
2017-12-23T06:11:17.779Z,46.40
2017-12-23T06:17:22.650Z,49.53
2017-12-23T06:23:26.232Z,47.43
2017-12-23T06:29:30.525Z,48.00
2017-12-23T06:35:34.097Z,27.97
2017-12-23T06:41:37.605Z,32.90
2017-12-23T06:47:41.934Z,37.93
2017-12-23T06:53:45.472Z,32.90
2017-12-23T06:59:49.153Z,33.53
2017-12-23T07:05:52.699Z,33.27
2017-12-23T07:11:56.332Z,30.13
2017-12-23T07:17:59.939Z,26.90
2017-12-23T07:24:03.441Z,19.57
2017-12-23T07:30:06.979Z,22.00
2017-12-23T07:36:10.511Z,24.20
2017-12-23T07:42:13.993Z,15.13
2017-12-23T07:48:17.483Z,13.73
2017-12-23T07:54:21.059Z,11.23
2017-12-23T08:00:24.544Z,7.90
2017-12-23T08:06:28.030Z,6.80
2017-12-23T08:12:31.535Z,4.40
2017-12-23T08:18:35.313Z,12.30
2017-12-23T08:24:39.717Z,8.37
2017-12-23T08:30:43.221Z,8.00
2017-12-23T08:36:46.709Z,5.50
2017-12-23T08:42:50.181Z,5.87
2017-12-23T08:48:53.863Z,4.50
2017-12-23T08:54:57.355Z,5.70
2017-12-23T09:01:01.627Z,7.33
2017-12-23T09:07:05.914Z,6.43
2017-12-23T09:13:09.440Z,5.67
2017-12-23T09:19:12.981Z,10.23
2017-12-23T09:25:16.503Z,8.40
2017-12-23T09:31:20.036Z,7.03
2017-12-23T09:37:23.814Z,8.03
2017-12-23T09:43:27.306Z,8.17
2017-12-23T09:49:30.797Z,8.87
2017-12-23T09:55:35.015Z,8.87
2017-12-23T10:01:38.511Z,11.80
2017-12-23T10:07:42.236Z,11.13
2017-12-23T10:13:45.713Z,9.37
2017-12-23T10:19:49.257Z,14.67
2017-12-23T10:25:52.797Z,20.43
2017-12-23T10:31:56.423Z,17.50
2017-12-23T10:37:59.940Z,18.43
2017-12-23T10:44:03.445Z,19.80
2017-12-23T10:50:06.959Z,21.00
2017-12-23T10:56:11.204Z,11.50
2017-12-23T11:02:14.689Z,22.27
2017-12-23T11:08:18.210Z,14.10
2017-12-23T11:14:23.296Z,8.93
2017-12-23T11:20:26.771Z,15.53
2017-12-23T11:26:30.306Z,16.30
2017-12-23T11:32:33.826Z,14.83
2017-12-23T11:38:37.488Z,8.97
2017-12-23T11:44:41.137Z,12.07
2017-12-23T11:50:44.744Z,18.57
2017-12-23T11:56:48.217Z,18.23
2017-12-23T12:02:53.039Z,22.03
2017-12-23T12:08:56.771Z,18.97
2017-12-23T12:15:00.329Z,26.23
2017-12-23T12:21:04.190Z,22.20
2017-12-23T12:27:08.566Z,32.27
2017-12-23T12:33:12.827Z,29.40
2017-12-23T12:39:17.084Z,29.63
2017-12-23T12:45:21.034Z,29.77
2017-12-23T12:51:24.910Z,35.57
2017-12-23T12:57:28.637Z,49.30
2017-12-23T13:03:32.332Z,43.43
2017-12-23T13:09:36.726Z,40.40
2017-12-23T13:15:41.193Z,36.97
2017-12-23T13:21:45.445Z,49.13
2017-12-23T13:27:49.016Z,44.10
2017-12-23T13:33:52.699Z,56.67
2017-12-23T13:39:56.539Z,46.83
2017-12-23T13:46:00.793Z,43.73
2017-12-23T13:52:04.253Z,44.97
2017-12-23T13:58:07.770Z,44.77
2017-12-23T14:04:11.311Z,40.37
2017-12-23T14:10:14.904Z,46.57
2017-12-23T14:16:18.509Z,37.07
2017-12-23T14:22:22.319Z,40.50
2017-12-23T14:28:25.927Z,41.03
2017-12-23T14:34:29.607Z,36.97
2017-12-23T14:40:33.146Z,44.00
2017-12-23T14:46:36.706Z,45.23
2017-12-23T14:52:40.203Z,37.47
2017-12-23T14:58:43.814Z,41.77
2017-12-23T15:04:47.341Z,38.27
2017-12-23T15:10:51.883Z,37.10
2017-12-23T15:16:55.727Z,41.13
2017-12-23T15:22:59.442Z,38.93
2017-12-23T15:29:03.717Z,36.03
2017-12-23T15:35:07.996Z,30.47
2017-12-23T15:41:12.430Z,35.40
2017-12-23T15:47:15.967Z,34.10
2017-12-23T15:53:19.535Z,27.70
2017-12-23T15:59:23.477Z,28.60
2017-12-23T16:05:26.984Z,28.67
2017-12-23T16:11:30.637Z,25.37
2017-12-23T16:17:34.894Z,31.20
2017-12-23T16:23:38.390Z,31.80
2017-12-23T16:29:41.973Z,33.07
2017-12-23T16:35:45.804Z,31.20
2017-12-23T16:41:49.350Z,32.37
2017-12-23T17:04:07.925Z,35.27
2017-12-23T17:10:11.558Z,34.77
2017-12-23T17:16:15.168Z,30.40
2017-12-23T17:22:19.911Z,23.93
2017-12-23T17:45:34.358Z,25.83
2017-12-23T17:51:38.651Z,24.90
2017-12-23T17:57:42.147Z,20.07
2017-12-23T18:03:45.830Z,32.10
2017-12-23T18:09:49.329Z,23.23
2017-12-23T18:15:53.128Z,32.30
2017-12-23T18:21:56.977Z,29.97
2017-12-23T18:28:00.619Z,22.97
2017-12-23T18:34:04.165Z,35.17
2017-12-23T18:40:07.649Z,31.90
2017-12-23T18:46:11.240Z,31.80
2017-12-23T18:52:15.487Z,39.23
2017-12-23T18:58:19.817Z,42.47
2017-12-23T19:04:24.648Z,32.37
2017-12-23T19:10:28.226Z,29.97
2017-12-23T19:16:50.584Z,32.73
2017-12-23T19:22:54.202Z,37.00
2017-12-23T19:28:57.744Z,26.70
2017-12-23T19:35:02.036Z,29.60
2017-12-23T19:41:05.538Z,27.93
2017-12-23T19:47:09.073Z,30.63
2017-12-23T19:53:12.593Z,33.57
2017-12-23T19:59:16.138Z,26.40
2017-12-23T20:05:20.502Z,31.40
2017-12-23T20:11:24.449Z,28.40
2017-12-23T20:17:28.100Z,30.50
2017-12-23T20:23:31.641Z,34.17
2017-12-23T20:29:35.430Z,27.93
2017-12-23T20:35:38.999Z,24.77
2017-12-23T20:41:43.351Z,28.83
2017-12-23T20:47:46.865Z,28.70
2017-12-23T20:53:50.357Z,27.07
2017-12-23T20:59:55.609Z,29.53
2017-12-23T21:05:59.133Z,22.80
2017-12-23T21:12:03.444Z,25.63
2017-12-23T21:18:06.954Z,22.30
2017-12-23T21:24:11.338Z,20.33
2017-12-23T21:30:14.848Z,19.87
2017-12-23T21:36:18.372Z,26.30
2017-12-23T21:42:22.501Z,23.37
2017-12-23T21:48:26.749Z,13.97
2017-12-23T21:54:30.302Z,21.03
2017-12-23T22:00:33.885Z,22.30
2017-12-23T22:06:38.178Z,22.47
2017-12-23T22:12:41.673Z,18.47
2017-12-23T22:18:45.180Z,22.80
2017-12-23T22:24:49.586Z,23.90
2017-12-23T22:30:53.341Z,24.40
2017-12-23T22:36:56.929Z,25.23
2017-12-23T22:43:00.456Z,21.90
2017-12-23T22:49:03.969Z,22.77
2017-12-23T22:55:08.331Z,18.60
2017-12-23T23:01:11.939Z,16.13
2017-12-23T23:07:15.444Z,19.03
2017-12-23T23:13:20.004Z,13.27
2017-12-23T23:19:24.483Z,20.17
2017-12-23T23:25:28.226Z,21.20
2017-12-23T23:31:31.717Z,21.53
2017-12-23T23:37:35.998Z,18.50
2017-12-23T23:43:40.265Z,18.50
2017-12-23T23:49:44.709Z,16.10
2017-12-23T23:55:48.400Z,17.43
